Koosharem, Utah
Current Conditions -  °F | °C
As of 4:53 PM on Saturday 22 Nov 2014 (Local Time) from KBCE Reporting Station
Overcast Overcast  
Wind Chill: 35°   Ceiling: 7000
Heat Index: 43°   Visibility: 10mi
Dew Point: 23°   Wind: 17mph
Humidity: 45%   Direction: 230°SW
Pressure: 29.93"   Gusts: NA
Location:  38.51°N, 111.88°W
Report Text: KBCE 222353Z AUTO 23015KT 10SM BKN070 OVC085 06/M05 A2993 RMK AO2 SLP110 T00611050 10111 20061 56008
Loading
Personal Weather Stations






























Interactive Weather Map New forecast layout! Learn more

10-Day Weather Forecast

Advertisements
Track Severe Weather on mobile